createdAt,value
2023-05-08T00:00:02.139Z,3.72
2023-05-08T00:03:04.391Z,3.92
2023-05-08T00:06:06.583Z,4.47
2023-05-08T00:09:08.616Z,4.07
2023-05-08T00:12:10.713Z,4.38
2023-05-08T00:15:12.722Z,3.70
2023-05-08T00:18:14.720Z,4.20
2023-05-08T00:21:16.767Z,3.63
2023-05-08T00:24:18.809Z,3.95
2023-05-08T00:27:20.923Z,4.55
2023-05-08T00:30:23.052Z,3.47
2023-05-08T00:33:25.143Z,4.32
2023-05-08T00:36:27.634Z,3.40
2023-05-08T00:39:29.858Z,3.80
2023-05-08T00:42:31.875Z,3.75
2023-05-08T00:45:36.623Z,4.50
2023-05-08T00:48:39.981Z,3.70
2023-05-08T00:51:43.370Z,3.63
2023-05-08T00:54:45.437Z,3.60
2023-05-08T00:57:47.894Z,2.58
2023-05-08T01:00:50.918Z,3.42
2023-05-08T01:03:53.249Z,3.38
2023-05-08T01:06:55.654Z,3.17
2023-05-08T01:09:57.761Z,3.38
2023-05-08T01:13:07.311Z,3.15
2023-05-08T01:16:16.310Z,2.80
2023-05-08T01:19:37.115Z,2.58
2023-05-08T01:22:59.481Z,2.95
2023-05-08T01:26:19.901Z,2.97
2023-05-08T01:29:40.247Z,3.72
2023-05-08T01:32:46.869Z,2.92
2023-05-08T01:35:56.388Z,2.60
2023-05-08T01:39:07.520Z,2.73
2023-05-08T01:42:16.123Z,2.75
2023-05-08T01:45:22.624Z,2.60
2023-05-08T01:48:35.474Z,2.60
2023-05-08T01:51:45.982Z,2.40
2023-05-08T01:54:57.223Z,2.30
2023-05-08T01:57:59.767Z,2.25
2023-05-08T02:01:02.593Z,2.47
2023-05-08T02:04:06.572Z,2.20
2023-05-08T02:07:08.760Z,2.47
2023-05-08T02:10:11.858Z,2.73
2023-05-08T02:13:14.659Z,2.25
2023-05-08T02:16:17.957Z,2.35
2023-05-08T02:19:22.071Z,2.30
2023-05-08T02:22:24.453Z,2.20
2023-05-08T02:25:27.782Z,2.30
2023-05-08T02:28:30.012Z,2.17
2023-05-08T02:31:34.745Z,2.38
2023-05-08T02:34:40.955Z,2.33
2023-05-08T02:37:52.765Z,2.30
2023-05-08T02:40:57.750Z,2.37
2023-05-08T02:44:00.420Z,2.38
2023-05-08T02:47:15.394Z,2.20
2023-05-08T02:50:43.627Z,2.40
2023-05-08T02:53:48.374Z,2.28
2023-05-08T02:56:55.893Z,1.88
2023-05-08T03:00:18.884Z,2.05
2023-05-08T03:03:25.800Z,1.60
2023-05-08T03:06:32.955Z,2.15
2023-05-08T03:09:45.516Z,2.28
2023-05-08T03:12:49.924Z,2.20
2023-05-08T03:15:58.695Z,1.30
2023-05-08T03:19:01.739Z,1.60
2023-05-08T03:22:06.056Z,1.33
2023-05-08T03:25:09.531Z,1.73
2023-05-08T03:28:13.625Z,1.85
2023-05-08T03:31:18.743Z,1.58
2023-05-08T03:34:21.831Z,3.05
2023-05-08T03:37:23.836Z,2.78
2023-05-08T03:40:27.748Z,1.55
2023-05-08T03:43:31.495Z,1.53
2023-05-08T03:46:34.660Z,1.77
2023-05-08T03:49:37.657Z,1.30
2023-05-08T03:52:39.737Z,1.63
2023-05-08T03:55:41.998Z,1.33
2023-05-08T03:58:48.837Z,1.83
2023-05-08T04:02:06.866Z,1.40
2023-05-08T04:05:23.667Z,1.65
2023-05-08T04:08:31.172Z,1.88
2023-05-08T04:11:48.061Z,1.52
2023-05-08T04:15:10.745Z,1.97
2023-05-08T04:18:16.499Z,2.35
2023-05-08T04:21:20.626Z,1.10
2023-05-08T04:24:23.527Z,2.27
2023-05-08T04:27:26.036Z,1.88
2023-05-08T04:30:28.717Z,1.98
2023-05-08T04:33:31.264Z,1.48
2023-05-08T04:36:34.097Z,2.20
2023-05-08T04:39:37.895Z,1.98
2023-05-08T04:42:43.597Z,2.25
2023-05-08T04:45:45.907Z,2.00
2023-05-08T04:48:48.779Z,1.60
2023-05-08T04:51:50.877Z,1.83
2023-05-08T04:54:53.194Z,2.08
2023-05-08T04:57:55.211Z,2.03
2023-05-08T05:00:57.704Z,2.53
2023-05-08T05:03:59.783Z,1.60
2023-05-08T05:07:02.751Z,2.23
2023-05-08T05:10:05.095Z,2.50
2023-05-08T05:13:08.651Z,1.75
2023-05-08T05:16:10.762Z,1.67
2023-05-08T05:19:13.006Z,2.10
2023-05-08T05:22:15.175Z,2.10
2023-05-08T05:25:17.360Z,1.85
2023-05-08T05:28:20.444Z,1.83
2023-05-08T05:31:22.624Z,2.23
2023-05-08T05:34:25.049Z,2.63
2023-05-08T05:37:27.479Z,2.60
2023-05-08T05:40:29.906Z,2.93
2023-05-08T05:43:33.057Z,2.70
2023-05-08T05:46:35.304Z,2.13
2023-05-08T05:49:39.925Z,3.45
2023-05-08T05:52:42.159Z,2.83
2023-05-08T05:55:44.374Z,1.87
2023-05-08T05:58:46.368Z,2.63
2023-05-08T06:01:48.659Z,2.58
2023-05-08T06:04:51.716Z,2.17
2023-05-08T06:07:53.938Z,2.53
2023-05-08T06:10:56.091Z,2.40
2023-05-08T06:13:58.341Z,2.70
2023-05-08T06:17:00.721Z,2.85
2023-05-08T06:20:03.328Z,1.90
2023-05-08T06:23:05.809Z,2.27
2023-05-08T06:26:07.978Z,1.95
2023-05-08T06:29:10.183Z,1.73
2023-05-08T06:32:12.545Z,1.65
2023-05-08T06:35:19.528Z,1.93
2023-05-08T06:38:21.684Z,2.20
2023-05-08T06:41:23.716Z,1.90
2023-05-08T06:44:25.776Z,1.80
2023-05-08T06:47:27.911Z,2.20
2023-05-08T06:50:30.058Z,1.50
2023-05-08T06:53:32.130Z,1.90
2023-05-08T06:56:34.666Z,2.70
2023-05-08T06:59:37.072Z,2.05
2023-05-08T07:02:39.906Z,1.83
2023-05-08T07:05:42.439Z,1.60
2023-05-08T07:08:44.904Z,1.40
2023-05-08T07:11:48.214Z,1.73
2023-05-08T07:14:50.568Z,1.85
2023-05-08T07:17:53.673Z,1.33
2023-05-08T07:20:55.901Z,1.70
2023-05-08T07:23:58.202Z,2.03
2023-05-08T07:27:00.351Z,1.90
2023-05-08T07:30:04.499Z,2.03
2023-05-08T07:33:06.844Z,2.00
2023-05-08T07:36:09.022Z,2.70
2023-05-08T07:39:11.117Z,1.80
2023-05-08T07:42:14.141Z,1.80
2023-05-08T07:45:16.559Z,1.38
2023-05-08T07:48:18.866Z,1.50
2023-05-08T07:51:20.921Z,2.17
2023-05-08T07:54:23.113Z,1.98
2023-05-08T07:57:25.178Z,2.30
2023-05-08T08:00:27.828Z,3.17
2023-05-08T08:03:29.914Z,2.30
2023-05-08T08:06:32.164Z,1.60
2023-05-08T08:09:34.226Z,2.58
2023-05-08T08:12:36.475Z,3.30
2023-05-08T08:15:38.617Z,2.60
2023-05-08T08:18:40.651Z,3.10
2023-05-08T08:21:43.528Z,2.63
2023-05-08T08:27:47.904Z,2.08
2023-05-08T08:30:50.022Z,2.58
2023-05-08T08:33:52.084Z,1.93
2023-05-08T08:36:54.132Z,2.30
2023-05-08T08:39:56.258Z,3.15
2023-05-08T08:42:59.163Z,2.60
2023-05-08T08:46:10.205Z,1.80
2023-05-08T08:49:13.922Z,3.20
2023-05-08T08:52:20.512Z,2.10
2023-05-08T08:55:23.533Z,2.20
2023-05-08T08:58:25.590Z,2.22
2023-05-08T09:01:29.516Z,2.30
2023-05-08T09:04:31.940Z,3.77
2023-05-08T09:07:34.262Z,2.37
2023-05-08T09:10:36.595Z,1.88
2023-05-08T09:13:38.662Z,2.08
2023-05-08T09:16:40.933Z,2.17
2023-05-08T09:19:42.994Z,3.07
2023-05-08T09:22:46.139Z,1.47
2023-05-08T09:25:48.849Z,2.75
2023-05-08T09:29:07.592Z,3.75
2023-05-08T09:32:18.167Z,1.70
2023-05-08T09:35:20.256Z,2.27
2023-05-08T09:38:35.386Z,1.80
2023-05-08T09:41:37.562Z,2.58
2023-05-08T09:44:46.925Z,1.52
2023-05-08T09:47:49.114Z,2.00
2023-05-08T09:51:05.457Z,2.10
2023-05-08T09:54:16.949Z,1.40
2023-05-08T09:57:19.077Z,2.35
2023-05-08T10:00:21.348Z,2.10
2023-05-08T10:03:23.443Z,1.80
2023-05-08T10:06:25.926Z,2.00
2023-05-08T10:09:35.637Z,1.77
2023-05-08T10:12:45.365Z,2.83
2023-05-08T10:15:54.407Z,3.45
2023-05-08T10:19:01.080Z,2.80
2023-05-08T10:22:04.248Z,3.27
2023-05-08T10:25:10.750Z,2.10
2023-05-08T10:28:15.769Z,2.80
2023-05-08T10:31:18.359Z,2.47
2023-05-08T10:34:22.564Z,2.10
2023-05-08T10:37:24.688Z,2.30
2023-05-08T10:40:26.887Z,2.90
2023-05-08T10:43:29.730Z,2.22
2023-05-08T10:46:46.900Z,2.60
2023-05-08T10:50:00.412Z,2.72
2023-05-08T10:53:07.173Z,2.33
2023-05-08T10:56:09.665Z,2.47
2023-05-08T10:59:21.360Z,1.92
2023-05-08T11:02:28.843Z,1.98
2023-05-08T11:05:31.260Z,2.55
2023-05-08T11:08:33.270Z,2.50
2023-05-08T11:11:38.663Z,3.57
2023-05-08T11:14:42.779Z,4.55
2023-05-08T11:17:53.845Z,2.38
2023-05-08T11:20:56.012Z,2.65
2023-05-08T11:23:58.326Z,2.50
2023-05-08T11:27:01.011Z,2.37
2023-05-08T11:30:23.713Z,2.80
2023-05-08T11:33:29.581Z,2.78
2023-05-08T11:36:32.359Z,2.65
2023-05-08T11:39:34.433Z,4.20
2023-05-08T11:42:36.638Z,2.10
2023-05-08T11:45:40.571Z,1.95
2023-05-08T11:48:42.886Z,2.58
2023-05-08T11:51:55.161Z,2.50
2023-05-08T11:54:57.247Z,2.17
2023-05-08T11:57:59.281Z,2.53
2023-05-08T12:01:01.906Z,2.00
2023-05-08T12:04:05.900Z,2.53
2023-05-08T12:07:08.346Z,2.00
2023-05-08T12:10:11.008Z,2.30
2023-05-08T12:13:19.814Z,2.40
2023-05-08T12:16:25.980Z,2.70
2023-05-08T12:19:28.136Z,3.40
2023-05-08T12:22:30.177Z,1.98
2023-05-08T12:25:32.476Z,2.33
2023-05-08T12:28:34.680Z,2.10
2023-05-08T12:31:37.014Z,2.15
2023-05-08T12:34:39.205Z,2.50
2023-05-08T12:37:41.685Z,2.60
2023-05-08T12:40:44.497Z,3.30
2023-05-08T12:43:46.969Z,3.10
2023-05-08T12:46:56.385Z,2.30
2023-05-08T12:49:58.459Z,2.15
2023-05-08T12:53:04.632Z,2.50
2023-05-08T12:56:06.917Z,3.47
2023-05-08T12:59:08.913Z,2.10
2023-05-08T13:02:18.507Z,4.47
2023-05-08T13:05:24.184Z,2.95
2023-05-08T13:08:30.117Z,2.33
2023-05-08T13:11:33.491Z,3.10
2023-05-08T13:14:35.827Z,1.97
2023-05-08T13:17:38.268Z,2.75
2023-05-08T13:20:40.570Z,2.00
2023-05-08T13:23:43.531Z,2.45
2023-05-08T13:26:46.231Z,3.27
2023-05-08T13:29:48.348Z,2.50
2023-05-08T13:32:51.003Z,2.60
2023-05-08T13:35:53.893Z,3.08
2023-05-08T13:38:57.457Z,2.80
2023-05-08T13:41:59.476Z,2.20
2023-05-08T13:45:01.979Z,2.73
2023-05-08T13:48:04.233Z,2.17
2023-05-08T13:51:06.304Z,2.22
2023-05-08T13:54:08.435Z,2.25
2023-05-08T13:57:10.988Z,2.23
2023-05-08T14:00:13.397Z,2.20
2023-05-08T14:03:15.522Z,1.90
2023-05-08T14:06:17.636Z,1.95
2023-05-08T14:09:19.782Z,2.53
2023-05-08T14:12:21.827Z,2.53
2023-05-08T14:15:27.032Z,2.33
2023-05-08T14:18:36.751Z,2.33
2023-05-08T14:21:38.870Z,2.53
2023-05-08T14:24:41.055Z,2.53
2023-05-08T14:27:43.146Z,2.80
2023-05-08T14:30:45.127Z,2.20
2023-05-08T14:33:47.172Z,2.30
2023-05-08T14:36:49.212Z,2.40
2023-05-08T14:39:54.198Z,2.28
2023-05-08T14:42:56.343Z,2.10
2023-05-08T14:45:58.528Z,2.37
2023-05-08T14:49:00.610Z,1.92
2023-05-08T14:52:04.312Z,2.72
2023-05-08T14:55:06.785Z,2.10
2023-05-08T14:58:08.949Z,2.03
2023-05-08T15:01:10.960Z,2.20
2023-05-08T15:04:13.097Z,2.30
2023-05-08T15:07:15.449Z,1.95
2023-05-08T15:10:17.749Z,2.00
2023-05-08T15:13:19.983Z,2.33
2023-05-08T15:16:22.115Z,2.07
2023-05-08T15:19:24.256Z,2.08
2023-05-08T15:22:27.198Z,5.95
2023-05-08T15:25:30.364Z,2.30
2023-05-08T15:28:33.304Z,2.27
2023-05-08T15:31:35.562Z,2.40
2023-05-08T15:34:39.302Z,2.47
2023-05-08T15:37:42.743Z,2.40
2023-05-08T15:40:44.841Z,3.55
2023-05-08T15:43:46.909Z,2.33
2023-05-08T15:46:48.939Z,2.43
2023-05-08T15:49:51.290Z,2.28
2023-05-08T15:52:53.374Z,2.58
2023-05-08T15:55:57.234Z,2.40
2023-05-08T15:58:59.531Z,3.10
2023-05-08T16:02:01.580Z,2.40
2023-05-08T16:05:03.729Z,3.25
2023-05-08T16:08:06.058Z,2.63
2023-05-08T16:11:08.292Z,2.33
2023-05-08T16:14:10.284Z,2.67
2023-05-08T16:17:12.352Z,2.23
2023-05-08T16:20:14.466Z,2.72
2023-05-08T16:23:16.471Z,2.28
2023-05-08T16:26:18.591Z,2.90
2023-05-08T16:29:20.770Z,2.70
2023-05-08T16:32:22.974Z,3.67
2023-05-08T16:35:25.112Z,3.00
2023-05-08T16:38:27.140Z,3.10
2023-05-08T16:41:29.431Z,3.33
2023-05-08T16:44:31.712Z,2.97
2023-05-08T16:47:34.146Z,2.70
2023-05-08T16:50:36.294Z,2.50
2023-05-08T16:53:38.372Z,3.05
2023-05-08T16:56:40.409Z,2.80
2023-05-08T16:59:42.584Z,3.10
2023-05-08T17:02:44.696Z,3.57
2023-05-08T17:05:46.826Z,5.38
2023-05-08T17:08:49.163Z,3.60
2023-05-08T17:11:51.153Z,3.33
2023-05-08T17:14:53.259Z,3.00
2023-05-08T17:17:56.061Z,3.20
2023-05-08T17:20:58.312Z,3.00
2023-05-08T17:24:01.099Z,3.35
2023-05-08T17:27:03.618Z,2.95
2023-05-08T17:30:06.580Z,3.30
2023-05-08T17:33:08.595Z,3.00
2023-05-08T17:36:10.740Z,3.33
2023-05-08T17:39:12.878Z,2.80
2023-05-08T17:42:14.858Z,3.22
2023-05-08T17:45:16.966Z,3.50
2023-05-08T17:48:19.110Z,4.30
2023-05-08T17:51:21.700Z,3.00
2023-05-08T17:54:24.523Z,3.40
2023-05-08T17:57:26.631Z,3.00
2023-05-08T18:00:28.705Z,3.50
2023-05-08T18:03:32.002Z,3.03
2023-05-08T18:06:34.113Z,4.18
2023-05-08T18:09:36.313Z,3.37
2023-05-08T18:12:38.399Z,3.55
2023-05-08T18:15:40.830Z,2.50
2023-05-08T18:18:43.555Z,3.00
2023-05-08T18:21:47.061Z,3.10
2023-05-08T18:24:50.186Z,3.60
2023-05-08T18:27:52.510Z,3.33
2023-05-08T18:30:54.908Z,2.80
2023-05-08T18:33:57.085Z,3.00
2023-05-08T18:36:59.062Z,2.65
2023-05-08T18:40:01.156Z,2.67
2023-05-08T18:43:03.227Z,3.08
2023-05-08T18:46:09.439Z,4.10
2023-05-08T18:49:11.585Z,3.50
2023-05-08T18:52:14.622Z,3.92
2023-05-08T18:55:16.726Z,2.97
2023-05-08T18:58:18.785Z,3.47
2023-05-08T19:01:21.365Z,3.10
2023-05-08T19:04:23.515Z,3.38
2023-05-08T19:07:25.593Z,3.10
2023-05-08T19:10:27.705Z,3.78
2023-05-08T19:13:29.885Z,3.72
2023-05-08T19:16:32.073Z,3.35
2023-05-08T19:19:34.400Z,3.23
2023-05-08T19:22:36.451Z,4.25
2023-05-08T19:25:38.528Z,3.33
2023-05-08T19:28:40.616Z,3.25
2023-05-08T19:31:42.682Z,3.27
2023-05-08T19:34:44.771Z,3.25
2023-05-08T19:37:47.000Z,3.22
2023-05-08T19:40:57.177Z,3.72
2023-05-08T19:43:59.516Z,2.60
2023-05-08T19:47:03.730Z,2.78
2023-05-08T19:50:07.423Z,3.42
2023-05-08T19:53:09.506Z,4.28
2023-05-08T19:56:11.558Z,2.42
2023-05-08T19:59:13.686Z,3.42
2023-05-08T20:02:15.803Z,3.20
2023-05-08T20:05:22.534Z,3.73
2023-05-08T20:08:25.241Z,3.40
2023-05-08T20:11:27.282Z,3.78
2023-05-08T20:14:29.334Z,3.83
2023-05-08T20:17:31.377Z,3.33
2023-05-08T20:20:34.942Z,3.50
2023-05-08T20:23:37.937Z,3.13
2023-05-08T20:26:39.998Z,3.15
2023-05-08T20:29:42.056Z,3.90
2023-05-08T20:32:44.224Z,3.15
2023-05-08T20:35:46.335Z,3.25
2023-05-08T20:38:48.405Z,3.27
2023-05-08T20:41:50.450Z,4.30
2023-05-08T20:44:52.483Z,3.05
2023-05-08T20:47:54.509Z,3.40
2023-05-08T20:50:56.938Z,3.27
2023-05-08T20:53:58.977Z,3.80
2023-05-08T20:57:02.130Z,3.33
2023-05-08T21:00:05.161Z,3.15
2023-05-08T21:03:07.283Z,3.20
2023-05-08T21:06:09.295Z,3.20
2023-05-08T21:09:11.340Z,3.50
2023-05-08T21:12:13.326Z,3.70
2023-05-08T21:15:15.551Z,3.67
2023-05-08T21:18:18.155Z,3.95
2023-05-08T21:21:20.528Z,3.33
2023-05-08T21:24:22.541Z,3.50
2023-05-08T21:27:26.039Z,3.28
2023-05-08T21:30:28.011Z,3.92
2023-05-08T21:33:30.451Z,3.85
2023-05-08T21:36:34.173Z,3.50
2023-05-08T21:39:36.162Z,3.30
2023-05-08T21:42:38.955Z,3.17
2023-05-08T21:45:40.952Z,2.77
2023-05-08T21:48:42.994Z,3.35
2023-05-08T21:51:45.797Z,3.55
2023-05-08T21:54:51.078Z,3.60
2023-05-08T21:57:53.927Z,2.95
2023-05-08T22:00:58.451Z,3.78
2023-05-08T22:04:01.104Z,3.10
2023-05-08T22:07:04.608Z,3.00
2023-05-08T22:10:09.161Z,3.22
2023-05-08T22:13:13.455Z,3.38
2023-05-08T22:16:15.687Z,3.67
2023-05-08T22:19:17.801Z,3.90
2023-05-08T22:22:19.859Z,3.00
2023-05-08T22:25:22.157Z,2.90
2023-05-08T22:28:24.195Z,2.80
2023-05-08T22:31:26.342Z,3.55
2023-05-08T22:34:28.396Z,2.95
2023-05-08T22:37:30.570Z,4.03
2023-05-08T22:40:32.730Z,4.65
2023-05-08T22:43:35.624Z,3.40
2023-05-08T22:46:38.312Z,3.40
2023-05-08T22:49:41.254Z,3.27
2023-05-08T22:52:43.360Z,3.60
2023-05-08T22:55:45.442Z,2.75
2023-05-08T22:58:47.451Z,2.90
2023-05-08T23:01:49.541Z,3.35
2023-05-08T23:04:51.792Z,2.92
2023-05-08T23:07:53.865Z,3.70
2023-05-08T23:10:55.931Z,4.07
2023-05-08T23:13:57.929Z,4.35
2023-05-08T23:16:59.986Z,3.10
2023-05-08T23:20:02.525Z,3.90
2023-05-08T23:23:04.597Z,3.00
2023-05-08T23:26:06.786Z,3.95
2023-05-08T23:29:08.856Z,3.20
2023-05-08T23:32:10.961Z,4.00
2023-05-08T23:35:13.338Z,3.65
2023-05-08T23:38:16.125Z,3.90
2023-05-08T23:41:18.799Z,3.75
2023-05-08T23:44:20.973Z,4.30
2023-05-08T23:47:24.069Z,3.72
2023-05-08T23:50:26.191Z,2.83
2023-05-08T23:53:28.238Z,4.00
2023-05-08T23:56:30.928Z,2.40
2023-05-08T23:59:33.069Z,3.77
